createdAt,value
2022-11-05T00:02:23.279Z,76.40
2022-11-05T00:08:07.079Z,58.60
2022-11-05T00:10:36.591Z,74.80
2022-11-05T00:21:02.351Z,77.40
2022-11-05T00:28:43.865Z,76.40
2022-11-05T00:31:14.005Z,75.60
2022-11-05T00:33:42.751Z,60.50
2022-11-05T00:36:10.726Z,60.90
2022-11-05T00:41:05.260Z,65.50
2022-11-05T01:08:47.078Z,61.10
2022-11-05T01:11:35.186Z,59.30
2022-11-05T01:14:08.071Z,77.70
2022-11-05T01:19:03.805Z,61.40
2022-11-05T01:28:57.976Z,76.60
2022-11-05T01:31:25.115Z,77.60
2022-11-05T01:43:52.560Z,77.10
2022-11-05T01:46:27.107Z,61.90
2022-11-05T01:49:01.757Z,61.60
2022-11-05T01:54:02.903Z,60.10
2022-11-05T01:56:35.545Z,61.90
2022-11-05T01:59:09.090Z,62.00
2022-11-05T02:01:36.113Z,78.10
2022-11-05T02:04:08.322Z,68.20
2022-11-05T02:06:38.317Z,62.40
2022-11-05T02:09:21.132Z,60.30
2022-11-05T02:11:49.723Z,62.50
2022-11-05T02:16:55.879Z,62.40
2022-11-05T02:20:00.483Z,78.00
2022-11-05T02:23:04.542Z,60.80
2022-11-05T02:30:49.322Z,78.00
2022-11-05T02:33:37.948Z,78.10
2022-11-05T02:36:31.480Z,63.20
2022-11-05T02:39:18.462Z,60.70
2022-11-05T02:42:22.953Z,78.50
2022-11-05T02:47:44.403Z,61.50
2022-11-05T02:53:03.983Z,76.40
2022-11-05T02:55:46.930Z,78.90
2022-11-05T03:00:46.410Z,79.00
2022-11-05T03:03:34.989Z,61.30
2022-11-05T03:06:07.658Z,60.30
2022-11-05T03:11:17.638Z,79.00
2022-11-05T03:13:57.910Z,72.60
2022-11-05T03:16:33.713Z,63.80
2022-11-05T03:19:25.347Z,64.80
2022-11-05T03:22:05.014Z,61.90
2022-11-05T03:24:35.487Z,63.80
2022-11-05T03:27:13.811Z,63.40
2022-11-05T03:29:49.610Z,62.80
2022-11-05T03:32:18.836Z,79.30
2022-11-05T03:34:51.619Z,80.80
2022-11-05T03:37:21.844Z,70.10
2022-11-05T03:39:56.461Z,64.60
2022-11-05T03:42:29.852Z,81.40
2022-11-05T03:44:59.675Z,64.60
2022-11-05T03:47:32.757Z,64.50
2022-11-05T03:50:17.635Z,81.40
2022-11-05T03:52:58.227Z,64.50
2022-11-05T03:55:32.681Z,64.10
2022-11-05T03:57:59.886Z,71.00
2022-11-05T04:00:26.813Z,76.60
2022-11-05T04:05:21.031Z,76.80
2022-11-05T04:11:06.786Z,68.20
2022-11-05T04:26:38.834Z,65.60
2022-11-05T04:36:50.369Z,64.90
2022-11-05T04:39:21.230Z,62.60
2022-11-05T04:41:48.748Z,63.80
2022-11-05T04:44:16.685Z,64.20
2022-11-05T04:54:05.243Z,75.40
2022-11-05T05:01:26.759Z,75.00
2022-11-05T05:08:50.224Z,64.70
2022-11-05T05:11:19.286Z,75.20
2022-11-05T05:16:25.267Z,80.00
2022-11-05T05:18:53.191Z,63.70
2022-11-05T05:21:39.797Z,64.10
2022-11-05T05:24:11.934Z,64.60
2022-11-05T05:26:41.603Z,64.60
2022-11-05T05:29:09.552Z,64.10
2022-11-05T05:34:05.301Z,63.30
2022-11-05T05:46:21.318Z,80.60
2022-11-05T05:48:50.411Z,81.20
2022-11-05T06:01:18.529Z,64.50
2022-11-05T06:06:14.802Z,64.00
2022-11-05T06:11:09.476Z,81.00
2022-11-05T06:16:06.234Z,64.60
2022-11-05T06:18:34.862Z,81.20
2022-11-05T06:21:10.159Z,62.50
2022-11-05T06:23:38.978Z,64.70
2022-11-05T06:26:08.899Z,80.10
2022-11-05T06:28:36.090Z,76.40
2022-11-05T06:36:02.140Z,62.90
2022-11-05T06:40:59.443Z,65.00
2022-11-05T06:48:21.386Z,81.60
2022-11-05T07:00:38.959Z,80.80
2022-11-05T07:03:08.082Z,65.10
2022-11-05T07:05:38.494Z,65.20
2022-11-05T07:23:13.293Z,65.50
2022-11-05T07:25:41.706Z,75.70
2022-11-05T07:28:09.593Z,64.60
2022-11-05T07:30:37.238Z,68.40
2022-11-05T07:35:32.308Z,80.50
2022-11-05T07:40:28.020Z,81.90
2022-11-05T07:42:57.666Z,65.40
2022-11-05T07:45:25.759Z,65.30
2022-11-05T07:48:00.997Z,81.90
2022-11-05T07:50:30.641Z,77.10
2022-11-05T07:53:08.429Z,66.30
2022-11-05T07:58:03.401Z,81.10
2022-11-05T08:00:30.609Z,80.10
2022-11-05T08:05:38.641Z,64.60
2022-11-05T08:08:08.351Z,64.50
2022-11-05T08:10:36.274Z,63.70
2022-11-05T08:13:03.556Z,80.80
2022-11-05T08:18:06.971Z,75.50
2022-11-05T08:20:35.234Z,63.10
2022-11-05T08:23:02.084Z,71.00
2022-11-05T08:28:05.716Z,64.20
2022-11-05T08:30:32.994Z,77.50
2022-11-05T08:33:05.639Z,61.80
2022-11-05T08:35:35.135Z,61.40
2022-11-05T08:38:03.882Z,76.50
2022-11-05T08:40:33.051Z,60.90
2022-11-05T08:48:09.529Z,58.30
2022-11-05T08:50:37.443Z,75.00
2022-11-05T08:53:05.318Z,58.10
2022-11-05T08:58:02.302Z,69.20
2022-11-05T09:00:31.418Z,74.60
2022-11-05T09:03:07.016Z,58.40
2022-11-05T09:05:39.211Z,75.00
2022-11-05T09:08:07.318Z,56.70
2022-11-05T09:10:34.563Z,74.30
2022-11-05T09:25:18.610Z,65.10
2022-11-05T09:27:45.504Z,62.40
2022-11-05T09:30:13.515Z,47.00
2022-11-05T09:37:37.075Z,45.70
2022-11-05T09:40:04.528Z,60.30
2022-11-05T09:42:46.082Z,45.40
2022-11-05T09:45:19.143Z,50.90
2022-11-05T09:48:04.036Z,45.20
2022-11-05T09:50:40.378Z,44.80
2022-11-05T09:55:41.269Z,44.50
2022-11-05T09:58:35.273Z,43.30
2022-11-05T10:01:05.732Z,43.80
2022-11-05T10:03:39.153Z,43.80
2022-11-05T10:06:11.055Z,44.60
2022-11-05T10:08:44.654Z,59.70
2022-11-05T10:11:19.222Z,41.50
2022-11-05T10:13:59.997Z,43.20
2022-11-05T10:16:36.279Z,60.00
2022-11-05T10:21:59.421Z,58.70
2022-11-05T10:24:20.301Z,49.60
2022-11-05T10:26:50.519Z,60.70
2022-11-05T10:29:27.704Z,57.80
2022-11-05T10:31:56.054Z,44.20
2022-11-05T10:34:27.882Z,44.60
2022-11-05T10:42:00.213Z,41.20
2022-11-05T10:47:06.191Z,43.80
2022-11-05T10:50:00.844Z,58.90
2022-11-05T10:55:00.743Z,43.10
2022-11-05T10:57:36.840Z,44.20
2022-11-05T11:00:16.151Z,59.40
2022-11-05T11:02:45.760Z,43.60
2022-11-05T11:05:25.450Z,43.50
2022-11-05T11:08:12.498Z,59.70
2022-11-05T11:10:55.505Z,41.70
2022-11-05T11:13:26.207Z,60.20
2022-11-05T11:15:53.585Z,59.20
2022-11-05T11:18:41.938Z,59.40
2022-11-05T11:21:19.539Z,59.60
2022-11-05T11:24:02.282Z,41.20
2022-11-05T11:26:35.399Z,42.80
2022-11-05T11:29:12.741Z,42.90
2022-11-05T11:31:40.392Z,42.50
2022-11-05T11:34:29.719Z,60.10
2022-11-05T11:37:12.860Z,43.10
2022-11-05T11:39:48.929Z,43.00
2022-11-05T11:42:28.336Z,57.20
2022-11-05T11:44:59.071Z,58.00
2022-11-05T11:47:28.751Z,41.50
2022-11-05T11:49:58.132Z,39.80
2022-11-05T11:52:33.476Z,55.20
2022-11-05T11:55:12.271Z,36.90
2022-11-05T11:57:48.999Z,37.90
2022-11-05T12:00:17.593Z,39.40
2022-11-05T12:03:04.539Z,55.60
2022-11-05T12:06:09.096Z,36.00
2022-11-05T12:08:45.573Z,54.20
2022-11-05T12:11:29.264Z,36.50
2022-11-05T12:14:00.615Z,38.90
2022-11-05T12:16:59.251Z,36.70
2022-11-05T12:19:38.014Z,37.40
2022-11-05T12:22:42.058Z,34.90
2022-11-05T12:25:36.577Z,35.40
2022-11-05T12:28:31.298Z,48.50
2022-11-05T12:31:03.468Z,40.30
2022-11-05T12:33:51.077Z,25.90
2022-11-05T12:36:53.325Z,26.70
2022-11-05T12:39:49.073Z,24.80
2022-11-05T12:42:28.000Z,26.50
2022-11-05T12:45:03.288Z,40.20
2022-11-05T12:48:01.549Z,27.30
2022-11-05T12:53:11.964Z,46.50
2022-11-05T12:55:47.100Z,31.20
2022-11-05T12:58:32.873Z,47.20
2022-11-05T13:01:05.944Z,48.10
2022-11-05T13:03:41.733Z,48.50
2022-11-05T13:06:14.929Z,45.40
2022-11-05T13:09:02.242Z,47.80
2022-11-05T13:11:50.278Z,31.40
2022-11-05T13:14:22.272Z,49.60
2022-11-05T13:17:06.373Z,31.10
2022-11-05T13:19:55.702Z,45.00
2022-11-05T13:22:44.660Z,32.40
2022-11-05T13:25:29.398Z,41.40
2022-11-05T13:28:33.692Z,31.90
2022-11-05T13:31:03.399Z,33.90
2022-11-05T13:33:36.582Z,49.50
2022-11-05T13:36:27.979Z,32.80
2022-11-05T13:39:24.847Z,33.90
2022-11-05T13:42:19.932Z,48.40
2022-11-05T13:45:11.272Z,48.20
2022-11-05T13:48:16.131Z,29.10
2022-11-05T13:53:34.891Z,30.00
2022-11-05T13:56:13.578Z,45.80
2022-11-05T13:58:52.584Z,47.40
2022-11-05T14:01:38.209Z,48.00
2022-11-05T14:04:05.811Z,49.20
2022-11-05T14:06:35.640Z,33.40
2022-11-05T14:09:08.391Z,33.90
2022-11-05T14:11:42.837Z,33.70
2022-11-05T14:14:22.883Z,40.80
2022-11-05T14:17:12.839Z,33.40
2022-11-05T14:20:22.235Z,33.40
2022-11-05T14:25:18.986Z,47.50
2022-11-05T14:27:49.159Z,35.70
2022-11-05T14:30:42.571Z,34.50
2022-11-05T14:33:26.078Z,35.10
2022-11-05T14:36:20.896Z,53.20
2022-11-05T14:38:50.560Z,54.60
2022-11-05T14:41:18.227Z,54.50
2022-11-05T14:43:58.332Z,36.40
2022-11-05T14:48:59.114Z,38.50
2022-11-05T14:51:33.242Z,37.10
2022-11-05T14:54:27.399Z,37.40
2022-11-05T14:56:57.608Z,55.60
2022-11-05T14:59:24.368Z,55.10
2022-11-05T15:02:18.192Z,55.40
2022-11-05T15:07:29.439Z,40.10
2022-11-05T15:10:07.280Z,45.70
2022-11-05T15:12:45.996Z,38.70
2022-11-05T15:15:43.239Z,56.40
2022-11-05T15:18:29.299Z,39.10
2022-11-05T15:20:58.797Z,57.90
2022-11-05T15:23:30.452Z,40.70
2022-11-05T15:26:20.495Z,45.30
2022-11-05T15:28:52.105Z,41.20
2022-11-05T15:31:34.110Z,39.40
2022-11-05T15:34:21.431Z,39.60
2022-11-05T15:37:02.893Z,58.20
2022-11-05T15:39:44.214Z,39.50
2022-11-05T15:42:22.270Z,39.90
2022-11-05T15:44:59.817Z,41.80
2022-11-05T15:47:32.029Z,41.70
2022-11-05T15:50:08.599Z,40.20
2022-11-05T15:52:48.564Z,40.40
2022-11-05T15:57:59.371Z,40.70
2022-11-05T16:00:28.516Z,42.60
2022-11-05T16:03:02.363Z,43.00
2022-11-05T16:05:35.381Z,41.60
2022-11-05T16:08:05.209Z,42.80
2022-11-05T16:10:35.484Z,43.00
2022-11-05T16:13:33.332Z,41.80
2022-11-05T16:16:03.582Z,43.70
2022-11-05T16:18:40.071Z,43.60
2022-11-05T16:21:10.052Z,43.70
2022-11-05T16:23:56.984Z,50.00
2022-11-05T16:31:59.467Z,44.80
2022-11-05T16:34:46.454Z,43.20
2022-11-05T16:37:16.424Z,45.20
2022-11-05T16:42:34.337Z,42.70
2022-11-05T16:45:01.151Z,61.60
2022-11-05T16:47:28.127Z,59.50
2022-11-05T16:52:22.364Z,58.50
2022-11-05T16:57:24.963Z,54.00
2022-11-05T16:59:52.198Z,56.70
2022-11-05T17:02:19.084Z,63.80
2022-11-05T17:04:46.094Z,64.60
2022-11-05T17:09:40.228Z,64.70
2022-11-05T17:12:08.621Z,47.70
2022-11-05T17:14:35.447Z,61.60
2022-11-05T17:19:30.007Z,65.10
2022-11-05T17:21:56.896Z,63.80
2022-11-05T17:31:45.450Z,64.80
2022-11-05T17:34:12.315Z,60.10
2022-11-05T17:36:39.295Z,47.80
2022-11-05T17:56:32.218Z,49.20
2022-11-05T18:01:31.396Z,54.30
2022-11-05T18:13:57.004Z,65.10
2022-11-05T18:26:15.862Z,49.30
2022-11-05T18:28:43.513Z,49.50
2022-11-05T18:31:18.306Z,47.70
2022-11-05T18:36:19.323Z,48.70
2022-11-05T18:46:08.773Z,67.00
2022-11-05T18:48:36.457Z,49.30
2022-11-05T18:51:14.779Z,48.50
2022-11-05T18:53:42.155Z,49.60
2022-11-05T18:56:10.841Z,50.50
2022-11-05T19:01:13.026Z,50.10
2022-11-05T19:11:11.663Z,50.60
2022-11-05T19:13:39.500Z,50.10
2022-11-05T19:16:12.084Z,50.40
2022-11-05T19:21:18.155Z,65.60
2022-11-05T19:23:45.217Z,66.60
2022-11-05T19:26:18.035Z,50.40
2022-11-05T19:28:45.208Z,66.20
2022-11-05T19:31:14.904Z,50.60
2022-11-05T19:33:43.143Z,50.20
2022-11-05T19:36:11.303Z,61.60
2022-11-05T19:41:10.877Z,51.20
2022-11-05T19:43:38.941Z,51.10
2022-11-05T19:46:10.543Z,50.30
2022-11-05T19:51:13.544Z,63.10
2022-11-05T19:53:40.921Z,49.40
2022-11-05T19:56:10.955Z,50.80
2022-11-05T20:06:05.140Z,48.60
2022-11-05T20:28:10.875Z,66.90
2022-11-05T20:30:39.753Z,51.40
2022-11-05T20:42:55.418Z,68.00
2022-11-05T20:50:16.818Z,66.60
2022-11-05T20:57:38.848Z,67.20
2022-11-05T21:00:07.336Z,51.60
2022-11-05T21:02:35.282Z,51.10
2022-11-05T21:17:19.904Z,68.60
2022-11-05T21:24:43.235Z,63.00
2022-11-05T21:32:04.694Z,52.80
2022-11-05T21:57:36.616Z,52.30
2022-11-05T22:00:08.797Z,52.60
2022-11-05T22:05:04.224Z,51.80
2022-11-05T22:07:34.233Z,58.30
2022-11-05T22:12:29.302Z,51.90
2022-11-05T22:27:16.003Z,53.00
2022-11-05T22:32:11.237Z,51.80
2022-11-05T22:37:05.837Z,59.50
2022-11-05T22:44:34.127Z,68.60
2022-11-05T23:04:14.229Z,53.00
2022-11-05T23:09:51.338Z,68.70
2022-11-05T23:12:24.958Z,59.80
2022-11-05T23:14:52.758Z,52.60
2022-11-05T23:20:31.183Z,53.10
2022-11-05T23:25:44.383Z,68.90
2022-11-05T23:31:02.367Z,60.60
2022-11-05T23:33:33.587Z,69.70
2022-11-05T23:38:46.276Z,70.80
2022-11-05T23:47:03.662Z,66.00
